sensor_id;sensor_type;location;lat;lon;timestamp;temperature;humidity
84296;SHT31;74464;42.688;23.304;2024-02-23T00:02:10;6.99;61.95
84296;SHT31;74464;42.688;23.304;2024-02-23T00:04:36;6.98;61.88
84296;SHT31;74464;42.688;23.304;2024-02-23T00:07:02;6.99;61.30
84296;SHT31;74464;42.688;23.304;2024-02-23T00:09:29;6.99;61.45
84296;SHT31;74464;42.688;23.304;2024-02-23T00:11:55;7.03;60.90
84296;SHT31;74464;42.688;23.304;2024-02-23T00:14:20;7.06;61.56
84296;SHT31;74464;42.688;23.304;2024-02-23T00:16:46;7.05;61.54
84296;SHT31;74464;42.688;23.304;2024-02-23T00:19:14;7.08;61.31
84296;SHT31;74464;42.688;23.304;2024-02-23T00:21:42;7.12;61.05
84296;SHT31;74464;42.688;23.304;2024-02-23T00:24:08;7.13;61.04
84296;SHT31;74464;42.688;23.304;2024-02-23T00:26:33;7.05;61.13
84296;SHT31;74464;42.688;23.304;2024-02-23T00:28:59;7.06;61.65
84296;SHT31;74464;42.688;23.304;2024-02-23T00:31:24;7.08;61.88
84296;SHT31;74464;42.688;23.304;2024-02-23T00:33:50;7.12;61.60
84296;SHT31;74464;42.688;23.304;2024-02-23T00:36:17;7.06;61.32
84296;SHT31;74464;42.688;23.304;2024-02-23T00:38:43;7.03;61.49
84296;SHT31;74464;42.688;23.304;2024-02-23T00:41:08;7.03;61.97
84296;SHT31;74464;42.688;23.304;2024-02-23T00:43:41;7.02;61.42
84296;SHT31;74464;42.688;23.304;2024-02-23T00:46:10;7.03;62.07
84296;SHT31;74464;42.688;23.304;2024-02-23T00:48:35;7.01;61.87
84296;SHT31;74464;42.688;23.304;2024-02-23T00:51:02;6.98;61.59
84296;SHT31;74464;42.688;23.304;2024-02-23T00:53:32;6.91;62.27
84296;SHT31;74464;42.688;23.304;2024-02-23T00:55:58;6.91;62.26
84296;SHT31;74464;42.688;23.304;2024-02-23T00:58:25;6.89;61.97
84296;SHT31;74464;42.688;23.304;2024-02-23T01:00:51;6.91;61.54
84296;SHT31;74464;42.688;23.304;2024-02-23T01:03:16;7.03;61.37
84296;SHT31;74464;42.688;23.304;2024-02-23T01:05:42;6.95;61.57
84296;SHT31;74464;42.688;23.304;2024-02-23T01:08:10;7.01;61.45
84296;SHT31;74464;42.688;23.304;2024-02-23T01:10:35;7.03;61.54
84296;SHT31;74464;42.688;23.304;2024-02-23T01:13:01;6.99;62.31
84296;SHT31;74464;42.688;23.304;2024-02-23T01:15:26;7.01;62.04
84296;SHT31;74464;42.688;23.304;2024-02-23T01:17:52;6.98;62.13
84296;SHT31;74464;42.688;23.304;2024-02-23T01:20:17;6.98;62.15
84296;SHT31;74464;42.688;23.304;2024-02-23T01:22:43;7.02;61.80
84296;SHT31;74464;42.688;23.304;2024-02-23T01:25:09;6.98;61.33
84296;SHT31;74464;42.688;23.304;2024-02-23T01:27:35;7.05;61.40
84296;SHT31;74464;42.688;23.304;2024-02-23T01:30:01;6.96;62.06
84296;SHT31;74464;42.688;23.304;2024-02-23T01:32:27;6.98;62.43
84296;SHT31;74464;42.688;23.304;2024-02-23T01:34:53;6.98;62.22
84296;SHT31;74464;42.688;23.304;2024-02-23T01:37:20;7.01;61.69
84296;SHT31;74464;42.688;23.304;2024-02-23T01:39:46;7.10;61.21
84296;SHT31;74464;42.688;23.304;2024-02-23T01:42:12;7.06;61.43
84296;SHT31;74464;42.688;23.304;2024-02-23T01:44:37;6.89;61.93
84296;SHT31;74464;42.688;23.304;2024-02-23T01:47:03;6.92;62.34
84296;SHT31;74464;42.688;23.304;2024-02-23T01:49:29;6.89;62.17
84296;SHT31;74464;42.688;23.304;2024-02-23T01:52:02;6.99;61.86
84296;SHT31;74464;42.688;23.304;2024-02-23T01:54:29;7.03;61.63
84296;SHT31;74464;42.688;23.304;2024-02-23T01:56:57;6.93;61.86
84296;SHT31;74464;42.688;23.304;2024-02-23T01:59:27;6.93;62.24
84296;SHT31;74464;42.688;23.304;2024-02-23T02:01:53;6.91;62.28
84296;SHT31;74464;42.688;23.304;2024-02-23T02:04:21;6.80;62.14
84296;SHT31;74464;42.688;23.304;2024-02-23T02:06:47;6.80;62.16
84296;SHT31;74464;42.688;23.304;2024-02-23T02:09:14;6.75;62.68
84296;SHT31;74464;42.688;23.304;2024-02-23T02:11:47;6.77;63.09
84296;SHT31;74464;42.688;23.304;2024-02-23T02:14:13;6.70;63.18
84296;SHT31;74464;42.688;23.304;2024-02-23T02:16:39;6.68;62.78
84296;SHT31;74464;42.688;23.304;2024-02-23T02:19:05;6.71;62.93
84296;SHT31;74464;42.688;23.304;2024-02-23T02:21:37;6.68;63.06
84296;SHT31;74464;42.688;23.304;2024-02-23T02:24:06;6.63;63.49
84296;SHT31;74464;42.688;23.304;2024-02-23T02:26:32;6.65;63.85
84296;SHT31;74464;42.688;23.304;2024-02-23T02:28:58;6.60;64.02
84296;SHT31;74464;42.688;23.304;2024-02-23T02:31:24;6.64;63.45
84296;SHT31;74464;42.688;23.304;2024-02-23T02:33:51;6.61;63.58
84296;SHT31;74464;42.688;23.304;2024-02-23T02:36:16;6.61;63.74
84296;SHT31;74464;42.688;23.304;2024-02-23T02:38:42;6.53;64.05
84296;SHT31;74464;42.688;23.304;2024-02-23T02:41:08;6.51;64.54
84296;SHT31;74464;42.688;23.304;2024-02-23T02:43:34;6.54;64.59
84296;SHT31;74464;42.688;23.304;2024-02-23T02:46:00;6.58;64.15
84296;SHT31;74464;42.688;23.304;2024-02-23T02:48:26;6.58;64.05
84296;SHT31;74464;42.688;23.304;2024-02-23T02:50:52;6.63;64.17
84296;SHT31;74464;42.688;23.304;2024-02-23T02:53:18;6.61;64.16
84296;SHT31;74464;42.688;23.304;2024-02-23T02:55:44;6.63;64.42
84296;SHT31;74464;42.688;23.304;2024-02-23T02:58:13;6.65;64.35
84296;SHT31;74464;42.688;23.304;2024-02-23T03:00:38;6.74;63.84
84296;SHT31;74464;42.688;23.304;2024-02-23T03:03:04;6.78;64.05
84296;SHT31;74464;42.688;23.304;2024-02-23T03:05:31;6.75;64.09
84296;SHT31;74464;42.688;23.304;2024-02-23T03:08:00;6.78;63.76
84296;SHT31;74464;42.688;23.304;2024-02-23T03:10:25;6.82;63.95
84296;SHT31;74464;42.688;23.304;2024-02-23T03:12:51;6.71;64.66
84296;SHT31;74464;42.688;23.304;2024-02-23T03:15:16;6.71;64.82
84296;SHT31;74464;42.688;23.304;2024-02-23T03:17:42;6.73;64.52
84296;SHT31;74464;42.688;23.304;2024-02-23T03:20:10;6.74;64.24
84296;SHT31;74464;42.688;23.304;2024-02-23T03:22:38;6.74;64.52
84296;SHT31;74464;42.688;23.304;2024-02-23T03:25:05;6.71;65.18
84296;SHT31;74464;42.688;23.304;2024-02-23T03:27:35;6.68;65.17
84296;SHT31;74464;42.688;23.304;2024-02-23T03:30:04;6.75;64.39
84296;SHT31;74464;42.688;23.304;2024-02-23T03:32:31;6.68;64.75
84296;SHT31;74464;42.688;23.304;2024-02-23T03:35:02;6.67;64.83
84296;SHT31;74464;42.688;23.304;2024-02-23T03:37:29;6.57;65.52
84296;SHT31;74464;42.688;23.304;2024-02-23T03:39:55;6.54;65.42
84296;SHT31;74464;42.688;23.304;2024-02-23T03:42:21;6.65;65.39
84296;SHT31;74464;42.688;23.304;2024-02-23T03:44:46;6.71;64.76
84296;SHT31;74464;42.688;23.304;2024-02-23T03:47:12;6.63;65.22
84296;SHT31;74464;42.688;23.304;2024-02-23T03:49:38;6.58;65.29
84296;SHT31;74464;42.688;23.304;2024-02-23T03:52:04;6.57;65.37
84296;SHT31;74464;42.688;23.304;2024-02-23T03:54:30;6.60;65.68
84296;SHT31;74464;42.688;23.304;2024-02-23T03:56:57;6.57;65.99
84296;SHT31;74464;42.688;23.304;2024-02-23T03:59:24;6.58;65.99
84296;SHT31;74464;42.688;23.304;2024-02-23T04:01:51;6.67;65.60
84296;SHT31;74464;42.688;23.304;2024-02-23T04:04:17;6.63;65.19
84296;SHT31;74464;42.688;23.304;2024-02-23T04:06:43;6.65;65.03
84296;SHT31;74464;42.688;23.304;2024-02-23T04:09:10;6.60;65.31
84296;SHT31;74464;42.688;23.304;2024-02-23T04:11:36;6.48;65.99
84296;SHT31;74464;42.688;23.304;2024-02-23T04:14:03;6.55;66.05
84296;SHT31;74464;42.688;23.304;2024-02-23T04:16:30;6.50;66.05
84296;SHT31;74464;42.688;23.304;2024-02-23T04:18:57;6.58;65.83
84296;SHT31;74464;42.688;23.304;2024-02-23T04:21:24;6.54;65.86
84296;SHT31;74464;42.688;23.304;2024-02-23T04:23:50;6.47;65.75
84296;SHT31;74464;42.688;23.304;2024-02-23T04:26:15;6.33;65.45
84296;SHT31;74464;42.688;23.304;2024-02-23T04:28:42;6.36;65.33
84296;SHT31;74464;42.688;23.304;2024-02-23T04:31:10;6.32;65.62
84296;SHT31;74464;42.688;23.304;2024-02-23T04:33:37;6.27;66.03
84296;SHT31;74464;42.688;23.304;2024-02-23T04:36:04;6.25;66.29
84296;SHT31;74464;42.688;23.304;2024-02-23T04:38:30;6.25;66.03
84296;SHT31;74464;42.688;23.304;2024-02-23T04:40:56;6.29;66.05
84296;SHT31;74464;42.688;23.304;2024-02-23T04:43:24;6.32;65.89
84296;SHT31;74464;42.688;23.304;2024-02-23T04:45:51;6.26;66.15
84296;SHT31;74464;42.688;23.304;2024-02-23T04:48:17;6.10;66.50
84296;SHT31;74464;42.688;23.304;2024-02-23T04:50:43;6.08;66.81
84296;SHT31;74464;42.688;23.304;2024-02-23T04:53:09;6.09;66.88
84296;SHT31;74464;42.688;23.304;2024-02-23T04:55:34;6.12;66.47
84296;SHT31;74464;42.688;23.304;2024-02-23T04:58:00;6.18;66.31
84296;SHT31;74464;42.688;23.304;2024-02-23T05:00:25;6.10;66.75
84296;SHT31;74464;42.688;23.304;2024-02-23T05:03:01;6.05;66.85
84296;SHT31;74464;42.688;23.304;2024-02-23T05:05:31;6.03;66.75
84296;SHT31;74464;42.688;23.304;2024-02-23T05:07:57;5.99;66.64
84296;SHT31;74464;42.688;23.304;2024-02-23T05:10:22;5.99;66.85
84296;SHT31;74464;42.688;23.304;2024-02-23T05:12:49;5.95;67.42
84296;SHT31;74464;42.688;23.304;2024-02-23T05:15:15;5.87;67.44
84296;SHT31;74464;42.688;23.304;2024-02-23T05:17:40;5.78;68.09
84296;SHT31;74464;42.688;23.304;2024-02-23T05:20:07;5.67;68.31
84296;SHT31;74464;42.688;23.304;2024-02-23T05:22:36;5.71;67.70
84296;SHT31;74464;42.688;23.304;2024-02-23T05:25:02;5.71;67.78
84296;SHT31;74464;42.688;23.304;2024-02-23T05:27:29;5.64;68.29
84296;SHT31;74464;42.688;23.304;2024-02-23T05:29:56;5.65;68.27
84296;SHT31;74464;42.688;23.304;2024-02-23T05:32:22;5.73;68.01
84296;SHT31;74464;42.688;23.304;2024-02-23T05:34:48;5.71;67.82
84296;SHT31;74464;42.688;23.304;2024-02-23T05:37:17;5.65;67.89
84296;SHT31;74464;42.688;23.304;2024-02-23T05:39:46;5.63;68.17
84296;SHT31;74464;42.688;23.304;2024-02-23T05:42:12;5.57;68.88
84296;SHT31;74464;42.688;23.304;2024-02-23T05:44:39;5.63;68.50
84296;SHT31;74464;42.688;23.304;2024-02-23T05:47:08;5.64;67.80
84296;SHT31;74464;42.688;23.304;2024-02-23T05:49:35;5.68;68.10
84296;SHT31;74464;42.688;23.304;2024-02-23T05:52:01;5.63;68.21
84296;SHT31;74464;42.688;23.304;2024-02-23T05:54:27;5.55;68.71
84296;SHT31;74464;42.688;23.304;2024-02-23T05:56:53;5.64;67.82
84296;SHT31;74464;42.688;23.304;2024-02-23T05:59:19;5.68;67.64
84296;SHT31;74464;42.688;23.304;2024-02-23T06:01:45;5.73;68.21
84296;SHT31;74464;42.688;23.304;2024-02-23T06:04:11;5.77;67.62
84296;SHT31;74464;42.688;23.304;2024-02-23T06:06:37;5.73;67.84
84296;SHT31;74464;42.688;23.304;2024-02-23T06:09:02;5.71;68.15
84296;SHT31;74464;42.688;23.304;2024-02-23T06:11:29;5.81;67.97
84296;SHT31;74464;42.688;23.304;2024-02-23T06:13:55;5.88;67.59
84296;SHT31;74464;42.688;23.304;2024-02-23T06:16:20;5.95;67.59
84296;SHT31;74464;42.688;23.304;2024-02-23T06:18:47;6.02;67.21
84296;SHT31;74464;42.688;23.304;2024-02-23T06:21:17;6.18;66.75
84296;SHT31;74464;42.688;23.304;2024-02-23T06:23:43;6.29;66.12
84296;SHT31;74464;42.688;23.304;2024-02-23T06:26:09;6.40;65.89
84296;SHT31;74464;42.688;23.304;2024-02-23T06:28:36;6.57;65.11
84296;SHT31;74464;42.688;23.304;2024-02-23T06:31:05;6.65;64.73
84296;SHT31;74464;42.688;23.304;2024-02-23T06:33:31;6.74;64.62
84296;SHT31;74464;42.688;23.304;2024-02-23T06:35:57;6.88;64.35
84296;SHT31;74464;42.688;23.304;2024-02-23T06:38:23;7.06;63.60
84296;SHT31;74464;42.688;23.304;2024-02-23T06:40:48;7.23;63.01
84296;SHT31;74464;42.688;23.304;2024-02-23T06:43:14;7.31;62.53
84296;SHT31;74464;42.688;23.304;2024-02-23T06:45:40;7.48;62.39
84296;SHT31;74464;42.688;23.304;2024-02-23T06:48:06;7.73;61.24
84296;SHT31;74464;42.688;23.304;2024-02-23T06:50:32;7.84;61.04
84296;SHT31;74464;42.688;23.304;2024-02-23T06:52:58;7.92;60.28
84296;SHT31;74464;42.688;23.304;2024-02-23T06:55:25;8.02;59.65
84296;SHT31;74464;42.688;23.304;2024-02-23T06:57:51;8.09;59.59
84296;SHT31;74464;42.688;23.304;2024-02-23T07:00:20;8.20;59.66
84296;SHT31;74464;42.688;23.304;2024-02-23T07:02:47;8.37;59.58
84296;SHT31;74464;42.688;23.304;2024-02-23T07:05:14;8.33;59.07
84296;SHT31;74464;42.688;23.304;2024-02-23T07:07:40;8.44;58.98
84296;SHT31;74464;42.688;23.304;2024-02-23T07:10:07;8.60;58.59
84296;SHT31;74464;42.688;23.304;2024-02-23T07:12:33;8.64;58.14
84296;SHT31;74464;42.688;23.304;2024-02-23T07:14:59;8.78;57.64
84296;SHT31;74464;42.688;23.304;2024-02-23T07:17:25;8.82;57.54
84296;SHT31;74464;42.688;23.304;2024-02-23T07:19:51;8.91;57.77
84296;SHT31;74464;42.688;23.304;2024-02-23T07:22:18;8.86;57.45
84296;SHT31;74464;42.688;23.304;2024-02-23T07:24:44;8.96;58.18
84296;SHT31;74464;42.688;23.304;2024-02-23T07:27:10;8.89;58.28
84296;SHT31;74464;42.688;23.304;2024-02-23T07:29:35;9.09;57.94
84296;SHT31;74464;42.688;23.304;2024-02-23T07:32:04;9.19;57.85
84296;SHT31;74464;42.688;23.304;2024-02-23T07:34:31;9.34;57.68
84296;SHT31;74464;42.688;23.304;2024-02-23T07:36:57;9.33;57.96
84296;SHT31;74464;42.688;23.304;2024-02-23T07:39:23;9.34;58.03
84296;SHT31;74464;42.688;23.304;2024-02-23T07:41:48;8.92;59.42
84296;SHT31;74464;42.688;23.304;2024-02-23T07:44:14;9.03;59.67
84296;SHT31;74464;42.688;23.304;2024-02-23T07:57:10;9.06;61.14
84296;SHT31;74464;42.688;23.304;2024-02-23T07:59:36;8.84;61.02
84296;SHT31;74464;42.688;23.304;2024-02-23T08:02:03;8.91;61.20
84296;SHT31;74464;42.688;23.304;2024-02-23T08:07:00;9.26;60.48
84296;SHT31;74464;42.688;23.304;2024-02-23T08:09:25;9.33;60.18
84296;SHT31;74464;42.688;23.304;2024-02-23T08:11:51;9.43;59.93
84296;SHT31;74464;42.688;23.304;2024-02-23T08:14:17;9.64;59.76
84296;SHT31;74464;42.688;23.304;2024-02-23T08:16:42;9.85;59.24
84296;SHT31;74464;42.688;23.304;2024-02-23T08:19:08;9.88;58.94
84296;SHT31;74464;42.688;23.304;2024-02-23T08:21:34;9.93;58.95
84296;SHT31;74464;42.688;23.304;2024-02-23T08:24:00;10.05;58.94
84296;SHT31;74464;42.688;23.304;2024-02-23T08:26:26;10.14;58.80
84296;SHT31;74464;42.688;23.304;2024-02-23T08:28:51;10.17;58.62
84296;SHT31;74464;42.688;23.304;2024-02-23T08:31:17;10.24;58.67
84296;SHT31;74464;42.688;23.304;2024-02-23T08:33:43;10.34;58.65
84296;SHT31;74464;42.688;23.304;2024-02-23T08:36:11;10.32;58.29
84296;SHT31;74464;42.688;23.304;2024-02-23T08:38:37;10.29;58.38
84296;SHT31;74464;42.688;23.304;2024-02-23T08:41:02;10.27;58.28
84296;SHT31;74464;42.688;23.304;2024-02-23T08:43:28;10.36;58.11
84296;SHT31;74464;42.688;23.304;2024-02-23T08:45:54;10.46;57.01
84296;SHT31;74464;42.688;23.304;2024-02-23T08:48:20;10.75;57.00
84296;SHT31;74464;42.688;23.304;2024-02-23T08:50:46;11.02;55.92
84296;SHT31;74464;42.688;23.304;2024-02-23T08:53:12;11.19;54.66
84296;SHT31;74464;42.688;23.304;2024-02-23T08:55:38;11.47;55.07
84296;SHT31;74464;42.688;23.304;2024-02-23T08:58:05;11.81;53.25
84296;SHT31;74464;42.688;23.304;2024-02-23T09:00:32;11.68;53.09
84296;SHT31;74464;42.688;23.304;2024-02-23T09:02:57;11.53;53.18
84296;SHT31;74464;42.688;23.304;2024-02-23T09:05:24;11.75;53.02
84296;SHT31;74464;42.688;23.304;2024-02-23T09:07:53;12.02;52.26
84296;SHT31;74464;42.688;23.304;2024-02-23T09:10:19;12.39;51.14
84296;SHT31;74464;42.688;23.304;2024-02-23T09:12:44;12.37;50.18
84296;SHT31;74464;42.688;23.304;2024-02-23T09:15:11;12.65;49.88
84296;SHT31;74464;42.688;23.304;2024-02-23T09:17:37;12.98;48.82
84296;SHT31;74464;42.688;23.304;2024-02-23T09:20:03;13.15;48.78
84296;SHT31;74464;42.688;23.304;2024-02-23T09:22:29;13.12;48.40
84296;SHT31;74464;42.688;23.304;2024-02-23T09:24:55;13.13;48.48
84296;SHT31;74464;42.688;23.304;2024-02-23T09:27:21;13.36;47.33
84296;SHT31;74464;42.688;23.304;2024-02-23T09:29:47;13.42;47.58
84296;SHT31;74464;42.688;23.304;2024-02-23T09:32:14;13.65;47.18
84296;SHT31;74464;42.688;23.304;2024-02-23T09:34:39;13.79;46.34
84296;SHT31;74464;42.688;23.304;2024-02-23T09:37:06;13.43;46.21
84296;SHT31;74464;42.688;23.304;2024-02-23T09:39:32;13.32;46.50
84296;SHT31;74464;42.688;23.304;2024-02-23T09:41:58;13.24;46.81
84296;SHT31;74464;42.688;23.304;2024-02-23T09:44:32;13.51;46.08
84296;SHT31;74464;42.688;23.304;2024-02-23T09:47:05;13.75;45.28
84296;SHT31;74464;42.688;23.304;2024-02-23T09:49:39;13.91;43.76
84296;SHT31;74464;42.688;23.304;2024-02-23T09:52:08;13.86;43.82
84296;SHT31;74464;42.688;23.304;2024-02-23T09:54:36;13.99;43.63
84296;SHT31;74464;42.688;23.304;2024-02-23T09:57:07;14.16;43.78
84296;SHT31;74464;42.688;23.304;2024-02-23T09:59:37;14.29;43.49
84296;SHT31;74464;42.688;23.304;2024-02-23T10:02:09;14.19;43.47
84296;SHT31;74464;42.688;23.304;2024-02-23T10:04:40;14.36;43.13
84296;SHT31;74464;42.688;23.304;2024-02-23T10:07:07;14.37;43.44
84296;SHT31;74464;42.688;23.304;2024-02-23T10:09:32;14.64;43.26
84296;SHT31;74464;42.688;23.304;2024-02-23T10:11:58;15.01;42.81
84296;SHT31;74464;42.688;23.304;2024-02-23T10:14:24;15.08;40.63
84296;SHT31;74464;42.688;23.304;2024-02-23T10:16:50;15.18;40.26
84296;SHT31;74464;42.688;23.304;2024-02-23T10:19:22;14.73;40.68
84296;SHT31;74464;42.688;23.304;2024-02-23T10:21:56;14.73;41.28
84296;SHT31;74464;42.688;23.304;2024-02-23T10:24:23;14.78;40.69
84296;SHT31;74464;42.688;23.304;2024-02-23T10:26:51;15.03;40.54
84296;SHT31;74464;42.688;23.304;2024-02-23T10:29:19;15.42;40.23
84296;SHT31;74464;42.688;23.304;2024-02-23T10:31:47;15.53;40.05
84296;SHT31;74464;42.688;23.304;2024-02-23T10:34:19;15.68;38.40
84296;SHT31;74464;42.688;23.304;2024-02-23T10:36:45;15.46;39.42
84296;SHT31;74464;42.688;23.304;2024-02-23T10:39:16;15.46;38.83
84296;SHT31;74464;42.688;23.304;2024-02-23T10:41:47;15.09;38.70
84296;SHT31;74464;42.688;23.304;2024-02-23T10:44:18;15.35;38.96
84296;SHT31;74464;42.688;23.304;2024-02-23T10:46:45;15.30;39.46
84296;SHT31;74464;42.688;23.304;2024-02-23T10:49:14;15.39;39.56
84296;SHT31;74464;42.688;23.304;2024-02-23T10:51:41;15.56;39.07
84296;SHT31;74464;42.688;23.304;2024-02-23T10:54:07;15.68;39.48
84296;SHT31;74464;42.688;23.304;2024-02-23T10:56:33;15.88;38.52
84296;SHT31;74464;42.688;23.304;2024-02-23T10:59:00;15.90;38.49
84296;SHT31;74464;42.688;23.304;2024-02-23T11:01:26;15.85;38.84
84296;SHT31;74464;42.688;23.304;2024-02-23T11:03:53;15.88;38.87
84296;SHT31;74464;42.688;23.304;2024-02-23T11:06:19;15.90;38.25
84296;SHT31;74464;42.688;23.304;2024-02-23T11:08:48;15.73;37.62
84296;SHT31;74464;42.688;23.304;2024-02-23T11:11:16;15.65;37.79
84296;SHT31;74464;42.688;23.304;2024-02-23T11:13:45;15.74;38.44
84296;SHT31;74464;42.688;23.304;2024-02-23T11:16:22;15.85;38.02
84296;SHT31;74464;42.688;23.304;2024-02-23T11:18:48;15.92;38.07
84296;SHT31;74464;42.688;23.304;2024-02-23T11:21:15;15.84;38.24
84296;SHT31;74464;42.688;23.304;2024-02-23T11:24:04;15.88;38.44
84296;SHT31;74464;42.688;23.304;2024-02-23T11:26:31;15.70;38.43
84296;SHT31;74464;42.688;23.304;2024-02-23T11:28:59;15.33;39.70
84296;SHT31;74464;42.688;23.304;2024-02-23T11:31:30;15.43;39.99
84296;SHT31;74464;42.688;23.304;2024-02-23T11:33:57;15.29;39.35
84296;SHT31;74464;42.688;23.304;2024-02-23T11:36:29;15.18;39.86
84296;SHT31;74464;42.688;23.304;2024-02-23T11:38:57;15.22;39.75
84296;SHT31;74464;42.688;23.304;2024-02-23T11:41:23;15.23;39.76
84296;SHT31;74464;42.688;23.304;2024-02-23T11:43:50;15.33;39.78
84296;SHT31;74464;42.688;23.304;2024-02-23T11:46:17;15.49;39.34
84296;SHT31;74464;42.688;23.304;2024-02-23T11:48:44;15.51;38.96
84296;SHT31;74464;42.688;23.304;2024-02-23T11:51:14;15.50;38.82
84296;SHT31;74464;42.688;23.304;2024-02-23T11:53:40;15.32;39.39
84296;SHT31;74464;42.688;23.304;2024-02-23T11:56:07;15.36;39.37
84296;SHT31;74464;42.688;23.304;2024-02-23T11:58:33;15.33;38.61
84296;SHT31;74464;42.688;23.304;2024-02-23T12:01:00;15.29;38.60
84296;SHT31;74464;42.688;23.304;2024-02-23T12:03:31;15.44;38.64
84296;SHT31;74464;42.688;23.304;2024-02-23T12:06:00;15.39;38.85
84296;SHT31;74464;42.688;23.304;2024-02-23T12:08:27;15.33;38.88
84296;SHT31;74464;42.688;23.304;2024-02-23T12:10:56;15.36;39.06
84296;SHT31;74464;42.688;23.304;2024-02-23T12:13:26;15.40;38.88
84296;SHT31;74464;42.688;23.304;2024-02-23T12:15:53;15.39;38.47
84296;SHT31;74464;42.688;23.304;2024-02-23T12:18:22;15.43;38.00
84296;SHT31;74464;42.688;23.304;2024-02-23T12:21:04;15.49;37.79
84296;SHT31;74464;42.688;23.304;2024-02-23T12:23:57;15.35;37.73
84296;SHT31;74464;42.688;23.304;2024-02-23T12:26:23;15.30;38.03
84296;SHT31;74464;42.688;23.304;2024-02-23T12:28:49;15.42;38.00
84296;SHT31;74464;42.688;23.304;2024-02-23T12:31:15;15.49;38.12
84296;SHT31;74464;42.688;23.304;2024-02-23T12:33:40;15.60;38.29
84296;SHT31;74464;42.688;23.304;2024-02-23T12:36:07;15.44;38.16
84296;SHT31;74464;42.688;23.304;2024-02-23T12:38:34;15.40;38.51
84296;SHT31;74464;42.688;23.304;2024-02-23T12:41:01;15.47;38.75
84296;SHT31;74464;42.688;23.304;2024-02-23T12:43:28;15.53;38.68
84296;SHT31;74464;42.688;23.304;2024-02-23T12:45:54;15.56;38.41
84296;SHT31;74464;42.688;23.304;2024-02-23T12:48:23;15.61;38.33
84296;SHT31;74464;42.688;23.304;2024-02-23T12:50:49;15.64;38.16
84296;SHT31;74464;42.688;23.304;2024-02-23T12:53:35;15.74;37.46
84296;SHT31;74464;42.688;23.304;2024-02-23T12:56:11;15.65;37.56
84296;SHT31;74464;42.688;23.304;2024-02-23T12:58:40;15.81;38.02
84296;SHT31;74464;42.688;23.304;2024-02-23T13:01:08;15.78;38.40
84296;SHT31;74464;42.688;23.304;2024-02-23T13:03:35;15.91;37.95
84296;SHT31;74464;42.688;23.304;2024-02-23T13:06:01;16.06;36.06
84296;SHT31;74464;42.688;23.304;2024-02-23T13:08:28;16.09;36.43
84296;SHT31;74464;42.688;23.304;2024-02-23T13:10:54;16.11;35.57
84296;SHT31;74464;42.688;23.304;2024-02-23T13:13:20;16.06;34.75
84296;SHT31;74464;42.688;23.304;2024-02-23T13:15:50;15.98;35.41
84296;SHT31;74464;42.688;23.304;2024-02-23T13:18:16;15.99;35.25
84296;SHT31;74464;42.688;23.304;2024-02-23T13:20:42;16.09;35.90
84296;SHT31;74464;42.688;23.304;2024-02-23T13:23:08;16.09;35.35
84296;SHT31;74464;42.688;23.304;2024-02-23T13:25:36;16.05;36.01
84296;SHT31;74464;42.688;23.304;2024-02-23T13:28:02;16.15;36.04
84296;SHT31;74464;42.688;23.304;2024-02-23T13:30:28;16.16;36.04
84296;SHT31;74464;42.688;23.304;2024-02-23T13:32:54;16.12;35.73
84296;SHT31;74464;42.688;23.304;2024-02-23T13:35:20;16.19;34.96
84296;SHT31;74464;42.688;23.304;2024-02-23T13:37:45;16.19;35.14
84296;SHT31;74464;42.688;23.304;2024-02-23T13:40:11;16.16;35.93
84296;SHT31;74464;42.688;23.304;2024-02-23T13:42:40;16.13;35.68
84296;SHT31;74464;42.688;23.304;2024-02-23T13:45:07;16.06;36.20
84296;SHT31;74464;42.688;23.304;2024-02-23T13:47:37;16.11;35.92
84296;SHT31;74464;42.688;23.304;2024-02-23T13:50:03;16.12;35.98
84296;SHT31;74464;42.688;23.304;2024-02-23T13:52:29;16.15;35.56
84296;SHT31;74464;42.688;23.304;2024-02-23T13:54:55;16.22;35.36
84296;SHT31;74464;42.688;23.304;2024-02-23T13:57:21;16.37;35.25
84296;SHT31;74464;42.688;23.304;2024-02-23T13:59:48;16.25;35.16
84296;SHT31;74464;42.688;23.304;2024-02-23T14:02:16;16.29;35.82
84296;SHT31;74464;42.688;23.304;2024-02-23T14:04:44;16.43;35.41
84296;SHT31;74464;42.688;23.304;2024-02-23T14:07:10;16.54;34.35
84296;SHT31;74464;42.688;23.304;2024-02-23T14:09:36;16.61;34.70
84296;SHT31;74464;42.688;23.304;2024-02-23T14:12:03;16.88;34.13
84296;SHT31;74464;42.688;23.304;2024-02-23T14:14:29;17.07;34.01
84296;SHT31;74464;42.688;23.304;2024-02-23T14:16:55;17.23;34.10
84296;SHT31;74464;42.688;23.304;2024-02-23T14:19:21;17.53;33.52
84296;SHT31;74464;42.688;23.304;2024-02-23T14:21:48;17.73;32.81
84296;SHT31;74464;42.688;23.304;2024-02-23T14:24:14;17.78;32.95
84296;SHT31;74464;42.688;23.304;2024-02-23T14:26:39;18.04;32.68
84296;SHT31;74464;42.688;23.304;2024-02-23T14:29:05;18.04;32.42
84296;SHT31;74464;42.688;23.304;2024-02-23T14:31:31;17.94;32.20
84296;SHT31;74464;42.688;23.304;2024-02-23T14:33:57;17.35;33.41
84296;SHT31;74464;42.688;23.304;2024-02-23T14:36:24;17.60;33.52
84296;SHT31;74464;42.688;23.304;2024-02-23T14:38:49;17.51;33.72
84296;SHT31;74464;42.688;23.304;2024-02-23T14:41:16;17.59;34.26
84296;SHT31;74464;42.688;23.304;2024-02-23T14:43:43;17.73;33.65
84296;SHT31;74464;42.688;23.304;2024-02-23T14:46:08;17.88;33.59
84296;SHT31;74464;42.688;23.304;2024-02-23T14:48:34;17.60;33.60
84296;SHT31;74464;42.688;23.304;2024-02-23T14:51:01;17.49;33.60
84296;SHT31;74464;42.688;23.304;2024-02-23T14:53:30;17.63;33.89
84296;SHT31;74464;42.688;23.304;2024-02-23T14:55:55;17.37;33.86
84296;SHT31;74464;42.688;23.304;2024-02-23T14:58:21;17.18;34.37
84296;SHT31;74464;42.688;23.304;2024-02-23T15:00:47;16.85;34.32
84296;SHT31;74464;42.688;23.304;2024-02-23T15:03:13;16.71;34.81
84296;SHT31;74464;42.688;23.304;2024-02-23T15:05:39;16.50;35.70
84296;SHT31;74464;42.688;23.304;2024-02-23T15:08:07;16.04;36.58
84296;SHT31;74464;42.688;23.304;2024-02-23T15:10:34;16.06;37.08
84296;SHT31;74464;42.688;23.304;2024-02-23T15:13:00;16.02;37.49
84296;SHT31;74464;42.688;23.304;2024-02-23T15:15:26;15.85;37.69
84296;SHT31;74464;42.688;23.304;2024-02-23T15:17:51;15.82;37.69
84296;SHT31;74464;42.688;23.304;2024-02-23T15:20:18;15.70;37.86
84296;SHT31;74464;42.688;23.304;2024-02-23T15:22:45;15.81;37.76
84296;SHT31;74464;42.688;23.304;2024-02-23T15:25:12;15.78;37.92
84296;SHT31;74464;42.688;23.304;2024-02-23T15:27:38;15.68;37.86
84296;SHT31;74464;42.688;23.304;2024-02-23T15:30:07;15.56;38.08
84296;SHT31;74464;42.688;23.304;2024-02-23T15:32:36;15.46;38.26
84296;SHT31;74464;42.688;23.304;2024-02-23T15:35:02;15.44;37.66
84296;SHT31;74464;42.688;23.304;2024-02-23T15:37:29;15.40;37.69